createdAt,value
2018-05-16T00:00:41.966Z,4.77
2018-05-16T00:03:10.648Z,7.73
2018-05-16T00:05:39.111Z,6.17
2018-05-16T00:08:07.394Z,4.23
2018-05-16T00:10:35.690Z,5.13
2018-05-16T00:13:04.386Z,3.90
2018-05-16T00:15:33.355Z,4.10
2018-05-16T00:18:01.638Z,4.27
2018-05-16T00:20:29.929Z,4.77
2018-05-16T00:22:58.620Z,5.33
2018-05-16T00:25:27.301Z,5.33
2018-05-16T00:27:56.023Z,5.80
2018-05-16T00:30:24.301Z,4.80
2018-05-16T00:32:52.593Z,7.60
2018-05-16T00:35:20.906Z,4.73
2018-05-16T00:37:49.170Z,4.97
2018-05-16T00:40:17.445Z,6.03
2018-05-16T00:42:45.794Z,4.50
2018-05-16T00:45:14.407Z,5.33
2018-05-16T00:47:42.695Z,5.70
2018-05-16T00:50:10.993Z,4.80
2018-05-16T00:52:39.278Z,5.53
2018-05-16T00:55:07.817Z,7.70
2018-05-16T00:57:36.150Z,5.93
2018-05-16T01:00:04.444Z,6.20
2018-05-16T01:02:32.737Z,6.53
2018-05-16T01:05:01.049Z,5.93
2018-05-16T01:07:29.725Z,6.17
2018-05-16T01:09:58.019Z,6.03
2018-05-16T01:12:26.336Z,6.20
2018-05-16T01:14:54.625Z,6.73
2018-05-16T01:17:22.897Z,5.73
2018-05-16T01:19:51.205Z,6.73
2018-05-16T01:22:19.478Z,6.00
2018-05-16T01:24:47.757Z,6.90
2018-05-16T01:27:16.062Z,6.23
2018-05-16T01:29:44.349Z,7.43
2018-05-16T01:32:12.659Z,6.97
2018-05-16T01:34:40.959Z,8.00
2018-05-16T01:37:09.243Z,6.97
2018-05-16T01:39:37.510Z,7.30
2018-05-16T01:42:05.796Z,8.00
2018-05-16T01:44:34.065Z,7.20
2018-05-16T01:47:02.662Z,7.80
2018-05-16T01:49:31.364Z,7.57
2018-05-16T01:51:59.665Z,7.00
2018-05-16T01:54:27.946Z,6.50
2018-05-16T01:56:56.276Z,7.17
2018-05-16T01:59:25.170Z,7.27
2018-05-16T02:01:53.896Z,7.67
2018-05-16T02:04:22.519Z,8.20
2018-05-16T02:06:50.809Z,7.90
2018-05-16T02:09:19.375Z,7.80
2018-05-16T02:11:47.705Z,9.43
2018-05-16T02:14:15.988Z,7.77
2018-05-16T02:16:44.257Z,7.70
2018-05-16T02:19:12.570Z,9.40
2018-05-16T02:21:40.948Z,7.80
2018-05-16T02:24:09.327Z,8.00
2018-05-16T02:26:37.920Z,7.90
2018-05-16T02:29:06.201Z,7.70
2018-05-16T02:31:34.474Z,8.67
2018-05-16T02:34:02.785Z,8.83
2018-05-16T02:36:31.068Z,11.37
2018-05-16T02:38:59.343Z,8.53
2018-05-16T02:41:27.767Z,9.10
2018-05-16T02:43:56.084Z,10.73
2018-05-16T02:46:24.775Z,8.60
2018-05-16T02:48:53.473Z,8.73
2018-05-16T02:51:21.794Z,10.70
2018-05-16T02:53:50.085Z,8.87
2018-05-16T02:56:18.389Z,8.80
2018-05-16T02:58:47.062Z,10.87
2018-05-16T03:01:15.332Z,9.80
2018-05-16T03:03:43.646Z,11.97
2018-05-16T03:06:11.925Z,10.73
2018-05-16T03:08:40.200Z,9.63
2018-05-16T03:11:08.480Z,9.47
2018-05-16T03:13:36.758Z,9.67
2018-05-16T03:16:05.030Z,9.93
2018-05-16T03:18:33.361Z,9.73
2018-05-16T03:21:01.942Z,10.53
2018-05-16T03:23:30.225Z,11.40
2018-05-16T03:25:58.523Z,10.27
2018-05-16T03:28:27.192Z,13.60
2018-05-16T03:30:55.479Z,12.07
2018-05-16T03:33:23.858Z,11.10
2018-05-16T03:35:52.109Z,13.20
2018-05-16T03:38:20.404Z,12.53
2018-05-16T03:40:49.146Z,14.37
2018-05-16T03:43:17.430Z,13.50
2018-05-16T03:45:45.714Z,13.00
2018-05-16T03:48:14.021Z,13.30
2018-05-16T03:50:42.702Z,13.63
2018-05-16T03:53:10.982Z,13.43
2018-05-16T03:55:39.686Z,13.57
2018-05-16T03:58:20.707Z,13.83
2018-05-16T04:04:23.213Z,14.47
2018-05-16T04:06:51.556Z,16.20
2018-05-16T04:09:19.854Z,15.63
2018-05-16T04:11:48.150Z,15.90
2018-05-16T04:14:16.483Z,16.07
2018-05-16T04:16:45.419Z,13.80
2018-05-16T04:19:13.712Z,14.80
2018-05-16T04:21:42.075Z,16.40
2018-05-16T04:24:10.360Z,15.47
2018-05-16T04:26:38.939Z,15.37
2018-05-16T04:29:07.239Z,16.13
2018-05-16T04:31:36.212Z,18.47
2018-05-16T04:34:04.496Z,18.80
2018-05-16T04:36:33.254Z,14.60
2018-05-16T04:39:01.568Z,16.00
2018-05-16T04:41:30.547Z,16.37
2018-05-16T04:43:58.885Z,15.60
2018-05-16T04:46:27.182Z,14.70
2018-05-16T04:48:55.559Z,18.40
2018-05-16T04:51:23.935Z,15.53
2018-05-16T04:53:52.208Z,17.00
2018-05-16T04:56:20.488Z,17.87
2018-05-16T04:58:48.804Z,15.80
2018-05-16T05:01:17.497Z,16.50
2018-05-16T05:03:46.475Z,16.67
2018-05-16T05:06:14.830Z,16.23
2018-05-16T05:08:43.127Z,17.37
2018-05-16T05:11:11.884Z,16.73
2018-05-16T05:13:40.179Z,17.50
2018-05-16T05:16:08.640Z,17.63
2018-05-16T05:18:37.009Z,15.20
2018-05-16T05:21:05.317Z,14.47
2018-05-16T05:23:33.620Z,14.10
2018-05-16T05:26:02.298Z,12.47
2018-05-16T05:28:30.683Z,14.13
2018-05-16T05:30:58.928Z,11.73
2018-05-16T05:33:27.509Z,11.50
2018-05-16T05:35:55.824Z,13.53
2018-05-16T05:38:24.132Z,14.23
2018-05-16T05:40:52.409Z,9.80
2018-05-16T05:43:20.781Z,10.70
2018-05-16T05:45:49.026Z,11.00
2018-05-16T05:48:17.586Z,10.10
2018-05-16T05:50:45.943Z,11.80
2018-05-16T05:53:14.238Z,13.93
2018-05-16T05:55:42.515Z,14.30
2018-05-16T05:58:10.838Z,16.70
2018-05-16T06:00:39.125Z,13.10
2018-05-16T06:03:07.535Z,18.43
2018-05-16T06:05:35.875Z,15.33
2018-05-16T06:08:04.163Z,12.77
2018-05-16T06:10:32.446Z,17.63
2018-05-16T06:13:00.861Z,13.83
2018-05-16T06:15:29.157Z,13.80
2018-05-16T06:17:57.452Z,13.33
2018-05-16T06:20:26.716Z,15.43
2018-05-16T06:22:55.078Z,13.00
2018-05-16T06:25:23.441Z,17.23
2018-05-16T06:27:52.509Z,15.40
2018-05-16T06:30:21.255Z,14.37
2018-05-16T06:32:49.963Z,19.10
2018-05-16T06:35:18.301Z,14.10
2018-05-16T06:37:46.584Z,15.40
2018-05-16T06:40:14.869Z,20.03
2018-05-16T06:42:43.191Z,17.03
2018-05-16T06:45:11.490Z,12.90
2018-05-16T06:47:39.782Z,14.00
2018-05-16T06:50:08.098Z,15.50
2018-05-16T06:52:36.401Z,16.10
2018-05-16T06:55:04.927Z,20.20
2018-05-16T06:57:33.253Z,13.00
2018-05-16T07:00:01.577Z,15.03
2018-05-16T07:02:29.866Z,14.30
2018-05-16T07:04:58.194Z,14.80
2018-05-16T07:07:26.515Z,14.63
2018-05-16T07:09:55.604Z,13.93
2018-05-16T07:12:24.781Z,14.83
2018-05-16T07:14:53.310Z,14.97
2018-05-16T07:17:21.976Z,15.37
2018-05-16T07:19:50.384Z,18.07
2018-05-16T07:22:18.745Z,15.80
2018-05-16T07:24:47.732Z,14.27
2018-05-16T07:27:16.491Z,14.60
2018-05-16T07:29:44.929Z,13.87
2018-05-16T07:32:13.568Z,14.93
2018-05-16T07:34:41.943Z,15.33
2018-05-16T07:37:10.228Z,13.97
2018-05-16T07:39:38.513Z,13.70
2018-05-16T07:42:06.817Z,14.00
2018-05-16T07:44:35.114Z,12.87
2018-05-16T07:47:03.728Z,13.90
2018-05-16T07:49:32.631Z,12.83
2018-05-16T07:52:00.958Z,12.40
2018-05-16T07:54:29.246Z,18.20
2018-05-16T07:56:57.562Z,12.23
2018-05-16T07:59:25.848Z,11.30
2018-05-16T08:01:54.165Z,11.10
2018-05-16T08:04:22.479Z,11.80
2018-05-16T08:06:50.765Z,11.10
2018-05-16T08:09:19.475Z,10.20
2018-05-16T08:11:48.166Z,10.77
2018-05-16T08:14:16.488Z,10.63
2018-05-16T08:16:44.763Z,10.47
2018-05-16T08:19:13.083Z,15.33
2018-05-16T08:21:41.460Z,12.87
2018-05-16T08:24:09.676Z,10.73
2018-05-16T08:26:38.082Z,10.40
2018-05-16T08:29:06.380Z,11.50
2018-05-16T08:31:34.668Z,11.17
2018-05-16T08:34:03.744Z,10.10
2018-05-16T08:36:32.329Z,9.70
2018-05-16T08:39:00.919Z,9.97
2018-05-16T08:41:29.638Z,9.67
2018-05-16T08:43:57.961Z,8.40
2018-05-16T08:46:26.243Z,10.33
2018-05-16T08:48:54.521Z,8.40
2018-05-16T08:51:22.816Z,10.43
2018-05-16T08:53:51.499Z,7.60
2018-05-16T08:56:19.829Z,7.93
2018-05-16T08:58:48.352Z,9.07
2018-05-16T09:01:16.731Z,11.83
2018-05-16T09:03:45.016Z,7.67
2018-05-16T09:06:13.698Z,7.87
2018-05-16T09:08:42.712Z,8.50
2018-05-16T09:11:11.694Z,8.33
2018-05-16T09:13:40.210Z,7.57
2018-05-16T09:16:08.685Z,7.40
2018-05-16T09:18:37.321Z,7.97
2018-05-16T09:21:05.608Z,6.70
2018-05-16T09:23:33.884Z,8.63
2018-05-16T09:26:03.009Z,6.60
2018-05-16T09:28:31.993Z,6.73
2018-05-16T09:31:00.293Z,7.03
2018-05-16T09:33:28.588Z,5.90
2018-05-16T09:35:56.894Z,6.77
2018-05-16T09:38:25.256Z,5.80
2018-05-16T09:40:53.677Z,6.07
2018-05-16T09:43:22.368Z,5.30
2018-05-16T09:45:51.124Z,5.83
2018-05-16T09:48:19.769Z,5.50
2018-05-16T09:50:48.050Z,5.13
2018-05-16T09:53:16.334Z,6.80
2018-05-16T09:55:44.618Z,6.00
2018-05-16T09:58:12.892Z,4.93
2018-05-16T10:00:41.181Z,5.20
2018-05-16T10:03:09.594Z,4.90
2018-05-16T10:05:38.034Z,7.00
2018-05-16T10:08:06.762Z,5.00
2018-05-16T10:10:35.471Z,5.20
2018-05-16T10:13:03.758Z,5.03
2018-05-16T10:15:32.060Z,7.13
2018-05-16T10:18:00.661Z,4.80
2018-05-16T10:20:29.147Z,4.50
2018-05-16T10:22:57.501Z,4.20
2018-05-16T10:25:25.802Z,4.47
2018-05-16T10:27:54.219Z,4.80
2018-05-16T10:30:22.533Z,4.80
2018-05-16T10:32:50.872Z,4.57
2018-05-16T10:35:19.140Z,4.27
2018-05-16T10:37:47.815Z,4.30
2018-05-16T10:40:16.534Z,4.00
2018-05-16T10:42:44.817Z,4.10
2018-05-16T10:45:13.081Z,4.57
2018-05-16T10:47:41.402Z,4.43
2018-05-16T10:50:09.770Z,3.80
2018-05-16T10:52:38.863Z,4.63
2018-05-16T10:55:07.188Z,5.00
2018-05-16T10:57:35.503Z,4.10
2018-05-16T11:00:03.785Z,4.20
2018-05-16T11:02:32.190Z,3.80
2018-05-16T11:05:00.459Z,4.40
2018-05-16T11:07:28.730Z,3.67
2018-05-16T11:09:57.037Z,3.40
2018-05-16T11:12:25.712Z,3.43
2018-05-16T11:14:54.281Z,3.40
2018-05-16T11:17:22.609Z,3.90
2018-05-16T11:19:51.029Z,3.80
2018-05-16T11:22:19.299Z,3.63
2018-05-16T11:24:48.009Z,3.33
2018-05-16T11:27:16.703Z,3.33
2018-05-16T11:29:45.057Z,3.70
2018-05-16T11:32:13.329Z,3.73
2018-05-16T11:34:41.706Z,3.33
2018-05-16T11:37:10.033Z,3.70
2018-05-16T11:39:38.487Z,3.07
2018-05-16T11:42:06.943Z,3.73
2018-05-16T11:44:35.226Z,2.93
2018-05-16T11:49:31.162Z,3.23
2018-05-16T11:51:59.457Z,3.10
2018-05-16T11:54:27.749Z,3.20
2018-05-16T11:56:56.426Z,3.27
2018-05-16T11:59:24.711Z,3.20
2018-05-16T12:01:53.386Z,3.20
2018-05-16T12:04:22.064Z,3.83
2018-05-16T12:06:50.332Z,3.33
2018-05-16T12:09:18.767Z,8.00
2018-05-16T12:11:46.946Z,3.30
2018-05-16T12:14:15.221Z,3.47
2018-05-16T12:16:43.666Z,3.50
2018-05-16T12:19:12.369Z,3.20
2018-05-16T12:21:41.121Z,3.03
2018-05-16T12:24:09.382Z,3.20
2018-05-16T12:26:37.690Z,3.50
2018-05-16T12:29:06.463Z,3.73
2018-05-16T12:31:35.081Z,3.40
2018-05-16T12:34:03.747Z,3.37
2018-05-16T12:36:32.440Z,3.50
2018-05-16T12:39:01.413Z,3.90
2018-05-16T12:41:30.113Z,3.47
2018-05-16T12:43:58.802Z,3.20
2018-05-16T12:46:27.654Z,3.60
2018-05-16T12:48:55.923Z,3.30
2018-05-16T12:51:24.195Z,3.20
2018-05-16T12:53:52.531Z,3.67
2018-05-16T12:56:20.798Z,3.50
2018-05-16T12:58:49.462Z,3.60
2018-05-16T13:01:17.770Z,3.27
2018-05-16T13:03:46.200Z,3.40
2018-05-16T13:06:14.517Z,3.27
2018-05-16T13:08:43.209Z,4.80
2018-05-16T13:11:12.144Z,3.50
2018-05-16T13:13:40.751Z,3.30
2018-05-16T13:16:09.062Z,3.10
2018-05-16T13:18:37.424Z,3.53
2018-05-16T13:21:06.126Z,3.10
2018-05-16T13:23:35.088Z,3.23
2018-05-16T13:26:03.800Z,3.20
2018-05-16T13:28:32.110Z,3.10
2018-05-16T13:31:00.417Z,3.13
2018-05-16T13:33:28.789Z,3.40
2018-05-16T13:35:57.125Z,2.90
2018-05-16T13:38:25.509Z,3.50
2018-05-16T13:40:53.922Z,3.27
2018-05-16T13:43:22.305Z,3.13
2018-05-16T13:45:50.683Z,3.07
2018-05-16T13:48:18.992Z,2.80
2018-05-16T13:50:47.665Z,3.30
2018-05-16T13:53:16.064Z,3.37
2018-05-16T13:55:44.745Z,3.57
2018-05-16T13:58:13.430Z,3.03
2018-05-16T14:00:42.136Z,3.13
2018-05-16T14:03:10.436Z,3.30
2018-05-16T14:05:38.729Z,3.00
2018-05-16T14:08:07.330Z,3.17
2018-05-16T14:10:35.691Z,3.40
2018-05-16T14:13:04.108Z,3.07
2018-05-16T14:15:33.781Z,2.70
2018-05-16T14:18:02.383Z,3.03
2018-05-16T14:20:30.675Z,2.63
2018-05-16T14:22:59.444Z,3.27
2018-05-16T14:25:27.734Z,3.40
2018-05-16T14:27:56.459Z,5.40
2018-05-16T14:30:24.763Z,3.03
2018-05-16T14:32:53.085Z,3.07
2018-05-16T14:35:21.782Z,3.20
2018-05-16T14:37:50.621Z,3.07
2018-05-16T14:40:18.904Z,3.40
2018-05-16T14:42:47.254Z,4.60
2018-05-16T14:45:15.904Z,2.90
2018-05-16T14:47:44.585Z,2.90
2018-05-16T14:50:13.264Z,3.00
2018-05-16T14:52:41.571Z,2.93
2018-05-16T14:55:09.842Z,3.20
2018-05-16T14:57:38.134Z,3.20
2018-05-16T15:00:12.170Z,3.40
2018-05-16T15:02:40.769Z,3.10
2018-05-16T15:05:09.076Z,3.20
2018-05-16T15:07:37.431Z,2.90
2018-05-16T15:10:06.005Z,2.70
2018-05-16T15:12:34.376Z,2.90
2018-05-16T15:15:02.678Z,3.20
2018-05-16T15:17:30.962Z,3.37
2018-05-16T15:19:59.625Z,2.90
2018-05-16T15:22:27.954Z,3.30
2018-05-16T15:24:56.264Z,2.47
2018-05-16T15:27:24.957Z,2.73
2018-05-16T15:29:53.595Z,2.87
2018-05-16T15:32:21.907Z,2.90
2018-05-16T15:34:50.217Z,3.20
2018-05-16T15:37:18.925Z,3.13
2018-05-16T15:39:47.234Z,2.90
2018-05-16T15:42:15.544Z,2.97
2018-05-16T15:44:43.855Z,3.17
2018-05-16T15:47:12.405Z,3.20
2018-05-16T15:49:40.688Z,2.90
2018-05-16T15:52:09.681Z,3.23
2018-05-16T15:54:38.262Z,2.93
2018-05-16T15:57:06.531Z,3.57
2018-05-16T15:59:34.904Z,3.23
2018-05-16T16:02:03.147Z,3.17
2018-05-16T16:04:31.443Z,3.20
2018-05-16T16:06:59.800Z,3.40
2018-05-16T16:09:28.081Z,3.70
2018-05-16T16:11:56.479Z,3.50
2018-05-16T16:14:25.097Z,3.70
2018-05-16T16:16:53.439Z,3.37
2018-05-16T16:19:21.712Z,3.10
2018-05-16T16:21:50.026Z,3.83
2018-05-16T16:24:18.727Z,3.40
2018-05-16T16:26:47.057Z,3.43
2018-05-16T16:29:15.435Z,3.97
2018-05-16T16:31:43.833Z,5.23
2018-05-16T16:34:12.106Z,4.40
2018-05-16T16:36:40.840Z,3.50
2018-05-16T16:39:09.197Z,4.60
2018-05-16T16:41:37.505Z,5.67
2018-05-16T16:44:05.809Z,3.60
2018-05-16T16:46:34.514Z,3.30
2018-05-16T16:49:02.796Z,4.37
2018-05-16T16:51:31.153Z,3.97
2018-05-16T16:53:59.431Z,4.93
2018-05-16T16:56:27.715Z,4.63
2018-05-16T16:58:56.312Z,3.50
2018-05-16T17:01:25.104Z,4.50
2018-05-16T17:03:54.100Z,6.50
2018-05-16T17:06:22.887Z,4.70
2018-05-16T17:08:51.181Z,4.60
2018-05-16T17:11:19.529Z,4.00
2018-05-16T17:13:48.006Z,3.63
2018-05-16T17:16:16.291Z,5.07
2018-05-16T17:18:44.556Z,4.30
2018-05-16T17:21:12.892Z,4.20
2018-05-16T17:23:41.205Z,4.73
2018-05-16T17:26:09.492Z,4.90
2018-05-16T17:28:38.308Z,4.10
2018-05-16T17:31:07.005Z,4.47
2018-05-16T17:33:35.426Z,4.23
2018-05-16T17:36:03.765Z,6.60
2018-05-16T17:38:32.054Z,4.30
2018-05-16T17:41:00.583Z,4.00
2018-05-16T17:43:28.919Z,4.70
2018-05-16T17:45:57.284Z,4.73
2018-05-16T17:48:25.653Z,4.33
2018-05-16T17:50:54.043Z,4.03
2018-05-16T17:53:22.351Z,4.30
2018-05-16T17:55:50.666Z,4.27
2018-05-16T17:58:19.352Z,4.60
2018-05-16T18:00:47.679Z,5.30
2018-05-16T18:03:16.290Z,4.80
2018-05-16T18:05:45.077Z,4.60
2018-05-16T18:08:13.420Z,4.63
2018-05-16T18:10:41.932Z,5.43
2018-05-16T18:16:33.543Z,4.67
2018-05-16T18:19:01.845Z,6.20
2018-05-16T18:21:30.141Z,4.83
2018-05-16T18:23:58.457Z,4.73
2018-05-16T18:26:26.765Z,5.97
2018-05-16T18:28:55.033Z,6.40
2018-05-16T18:31:23.310Z,5.90
2018-05-16T18:33:51.614Z,5.80
2018-05-16T18:36:19.897Z,5.77
2018-05-16T18:38:48.185Z,5.30
2018-05-16T18:41:16.493Z,5.50
2018-05-16T18:43:44.802Z,5.80
2018-05-16T18:46:13.807Z,9.43
2018-05-16T18:48:42.082Z,6.20
2018-05-16T18:51:10.393Z,5.03
2018-05-16T18:53:39.004Z,3.93
2018-05-16T18:56:07.277Z,4.43
2018-05-16T18:58:35.637Z,4.67
2018-05-16T19:01:03.957Z,13.60
2018-05-16T19:03:32.231Z,5.33
2018-05-16T19:06:00.561Z,5.87
2018-05-16T19:08:29.240Z,6.17
2018-05-16T19:11:00.183Z,6.20
2018-05-16T19:13:28.616Z,7.03
2018-05-16T19:15:56.911Z,6.07
2018-05-16T19:18:25.188Z,7.23
2018-05-16T19:20:53.492Z,6.57
2018-05-16T19:23:22.155Z,6.20
2018-05-16T19:25:50.483Z,7.40
2018-05-16T19:28:18.804Z,6.53
2018-05-16T19:30:47.173Z,6.83
2018-05-16T19:33:15.464Z,6.87
2018-05-16T19:35:43.812Z,6.50
2018-05-16T19:38:12.089Z,9.23
2018-05-16T19:40:40.458Z,6.50
2018-05-16T19:43:09.127Z,7.10
2018-05-16T19:45:37.414Z,8.23
2018-05-16T19:48:05.751Z,7.10
2018-05-16T19:50:34.024Z,6.83
2018-05-16T19:53:02.416Z,9.30
2018-05-16T19:55:30.733Z,7.70
2018-05-16T19:57:59.040Z,8.47
2018-05-16T20:00:27.351Z,7.53
2018-05-16T20:02:55.642Z,6.93
2018-05-16T20:05:24.003Z,7.20
2018-05-16T20:07:52.307Z,6.23
2018-05-16T20:10:20.608Z,7.43
2018-05-16T20:12:49.227Z,6.60
2018-05-16T20:15:17.915Z,6.47
2018-05-16T20:17:46.209Z,6.50
2018-05-16T20:20:14.546Z,6.87
2018-05-16T20:22:42.841Z,10.10
2018-05-16T20:25:11.126Z,7.03
2018-05-16T20:27:39.804Z,8.20
2018-05-16T20:30:08.502Z,7.27
2018-05-16T20:32:36.802Z,7.00
2018-05-16T20:35:05.130Z,6.93
2018-05-16T20:37:33.424Z,7.97
2018-05-16T20:40:02.189Z,7.40
2018-05-16T20:42:30.405Z,9.37
2018-05-16T20:44:58.697Z,8.97
2018-05-16T20:47:27.226Z,8.70
2018-05-16T20:49:55.514Z,10.40
2018-05-16T20:52:24.236Z,10.90
2018-05-16T20:54:52.564Z,10.53
2018-05-16T20:57:20.893Z,10.83
2018-05-16T20:59:49.225Z,13.23
2018-05-16T21:02:17.538Z,11.20
2018-05-16T21:04:45.808Z,10.73
2018-05-16T21:07:14.113Z,10.37
2018-05-16T21:09:42.844Z,9.50
2018-05-16T21:12:11.135Z,11.33
2018-05-16T21:14:39.805Z,8.90
2018-05-16T21:17:08.127Z,12.83
2018-05-16T21:19:36.439Z,9.33
2018-05-16T21:22:04.752Z,10.50
2018-05-16T21:24:33.441Z,9.20
2018-05-16T21:27:02.107Z,10.13
2018-05-16T21:29:30.565Z,7.90
2018-05-16T21:31:58.943Z,8.37
2018-05-16T21:34:27.211Z,9.63
2018-05-16T21:36:55.582Z,7.00
2018-05-16T21:39:23.862Z,9.63
2018-05-16T21:41:52.137Z,9.57
2018-05-16T21:44:20.476Z,9.00
2018-05-16T21:46:48.813Z,10.67
2018-05-16T21:49:17.125Z,9.93
2018-05-16T21:51:45.852Z,16.77
2018-05-16T21:54:14.205Z,10.63
2018-05-16T21:56:42.614Z,11.63
2018-05-16T21:59:10.900Z,8.37
2018-05-16T22:01:39.591Z,11.97
2018-05-16T22:04:08.301Z,8.10
2018-05-16T22:06:36.642Z,10.60
2018-05-16T22:09:05.799Z,9.23
2018-05-16T22:11:34.345Z,11.80
2018-05-16T22:14:02.650Z,8.40
2018-05-16T22:16:31.357Z,12.00
2018-05-16T22:18:59.652Z,9.17
2018-05-16T22:21:27.949Z,9.93
2018-05-16T22:23:56.257Z,10.10
2018-05-16T22:26:24.954Z,9.13
2018-05-16T22:28:53.620Z,13.20
2018-05-16T22:31:27.566Z,13.47
2018-05-16T22:34:01.585Z,16.70
2018-05-16T22:36:35.608Z,14.43
2018-05-16T22:39:09.586Z,14.67
2018-05-16T22:41:43.761Z,11.53
2018-05-16T22:44:22.281Z,9.03
2018-05-16T22:46:50.608Z,7.93
2018-05-16T22:49:18.890Z,9.03
2018-05-16T22:51:47.422Z,9.80
2018-05-16T22:54:15.704Z,8.57
2018-05-16T22:56:43.984Z,6.87
2018-05-16T22:59:12.660Z,6.80
2018-05-16T23:01:40.977Z,10.90
2018-05-16T23:04:09.260Z,7.53
2018-05-16T23:06:37.785Z,8.20
2018-05-16T23:09:06.089Z,11.93
2018-05-16T23:11:34.779Z,8.23
2018-05-16T23:14:03.445Z,10.70
2018-05-16T23:16:31.750Z,6.87
2018-05-16T23:19:00.293Z,8.17
2018-05-16T23:21:28.560Z,8.23
2018-05-16T23:23:56.861Z,8.00
2018-05-16T23:26:25.129Z,6.67
2018-05-16T23:28:53.421Z,7.10
2018-05-16T23:31:22.122Z,7.00
2018-05-16T23:33:50.401Z,8.40
2018-05-16T23:36:18.943Z,7.47
2018-05-16T23:38:47.250Z,8.63
2018-05-16T23:41:15.916Z,7.60
2018-05-16T23:43:44.204Z,9.40
2018-05-16T23:46:12.909Z,6.50
2018-05-16T23:48:41.574Z,5.83
2018-05-16T23:51:10.244Z,7.20
2018-05-16T23:53:38.562Z,8.83
2018-05-16T23:56:07.099Z,6.47
2018-05-16T23:58:35.379Z,8.20
